Language: 


Des rapports , des résumés tant et plus, au choix de chacun....


Données statistiques de la station
Quotidien Rapport Mars 17, 2017 Unités:  Anglais    Métrique   les deux
« Précédent Jour
Suivant Jour »
Quotidien Hebdomadaire Mensuel Annuel Actuel
  Haut: Bas: Moyen:
Température: 56.1 °F 32 °F 49.3 °F
Pt de rosée: 48 °F 29.1 °F 41 °F
Humidité: 98 % 0 % 75 %
Vitesse du vent: 28.4 mph 0 mph 8.9 mph
Rafales: 28.4 mph - -
Vent:- - West
Pression: 30.1 in 0 in -
Précipitation: 0.02 in    
Historical Graphs
 
 
Données statistiques pour Mars 17, 2017
Heure Température Point de rosée Pression Vent Vitesse du vent Refales Humidité Pluie (taux horaire)
00:00 46.9 °F 44.2 °F 30 in WSW 3.1 mph 7.2 mph 90 % 0 in
00:05 46.6 °F 43.5 °F 30 in West 3.4 mph 5.4 mph 89 % 0 in
00:10 46.6 °F 43.3 °F 30 in West 2.9 mph 4.7 mph 89 % 0 in
00:15 46.2 °F 43.2 °F 30 in WSW 2.9 mph 4 mph 89 % 0 in
00:20 45.9 °F 42.6 °F 30 in WSW 3.1 mph 4 mph 89 % 0 in
00:25 45.1 °F 41.9 °F 30 in WSW 4 mph 4.7 mph 88 % 0 in
00:30 45.1 °F 42.3 °F 30 in West 3.4 mph 4.7 mph 89 % 0 in
00:35 45.1 °F 42.4 °F 30 in West 2.5 mph 4.3 mph 90 % 0 in
00:40 45.1 °F 42.4 °F 30 in West 3.1 mph 6.3 mph 90 % 0 in
00:45 45.1 °F 42.6 °F 30 in West 2 mph 6.3 mph 91 % 0 in
00:50 45.1 °F 42.6 °F 30 in West 2 mph 4.7 mph 91 % 0 in
00:55 45 °F 42.4 °F 30 in West 2.5 mph 4 mph 91 % 0 in
01:00 45 °F 42.4 °F 30 in West 3.1 mph 4.9 mph 91 % 0 in
01:05 45 °F 42.6 °F 30 in West 2.7 mph 6.3 mph 92 % 0 in
01:06 45 °F 42.6 °F 30 in West 1.1 mph 6.3 mph 92 % 0 in
01:11 45 °F 42.6 °F 30 in WNW 5.4 mph 6.3 mph 92 % 0 in
01:16 45.1 °F 43.2 °F 30 in West 3.1 mph 5.4 mph 93 % 0 in
01:21 45.1 °F 43.3 °F 30 in WSW 3.6 mph 6 mph 93 % 0 in
01:26 45.3 °F 43.5 °F 30.1 in West 6.5 mph 6.5 mph 93 % 0 in
01:31 45.9 °F 44.1 °F 30.1 in West 3.1 mph 7.6 mph 94 % 0 in
01:36 45.9 °F 44.2 °F 30.1 in West 7.6 mph 8.5 mph 94 % 0 in
01:41 45.9 °F 44.6 °F 30 in West 4.9 mph 8.5 mph 95 % 0 in
01:46 45.9 °F 44.6 °F 30 in West 5.8 mph 8.5 mph 95 % 0 in
01:51 45.9 °F 44.6 °F 30 in West 3.1 mph 8.5 mph 95 % 0 in
01:56 45.9 °F 44.6 °F 30 in WSW 4 mph 7.2 mph 95 % 0 in
02:01 32 °F 44.6 °F 0 in West 3.6 mph 5.8 mph 0 % 0 in
02:06 45.7 °F 44.2 °F 30 in WSW 4.3 mph 5.8 mph 95 % 0 in
02:12 45.7 °F 44.2 °F 30 in West 5.8 mph 5.8 mph 95 % 0 in
02:17 45.9 °F 44.8 °F 30 in West 5.8 mph 7.4 mph 96 % 0 in
02:22 45.9 °F 44.8 °F 30 in West 5.4 mph 7.4 mph 96 % 0 in
02:27 45.9 °F 45 °F 30 in West 3.8 mph 7.6 mph 96 % 0 in
02:32 46 °F 45 °F 30 in West 4.9 mph 7.6 mph 96 % 0 in
02:37 46.2 °F 45.1 °F 30 in WSW 3.8 mph 7.8 mph 96 % 0 in
02:42 46.2 °F 45.1 °F 30 in West 5.8 mph 8.7 mph 96 % 0 in
02:47 46.6 °F 45.3 °F 30 in West 5.8 mph 8.7 mph 96 % 0 in
02:52 46.6 °F 45.9 °F 30 in West 4.9 mph 7.8 mph 97 % 0 in
02:57 46.6 °F 45.9 °F 30 in West 5.4 mph 6.5 mph 97 % 0 in
03:02 46.8 °F 46 °F 30 in SW 6.5 mph 7.4 mph 97 % 0 in
03:07 32 °F 46 °F 30 in West 5.8 mph 6.5 mph 0 % 0 in
03:12 46.8 °F 46 °F 30 in NW 6 mph 8.5 mph 97 % 0 in
03:17 46.9 °F 46.2 °F 30 in West 5.6 mph 8.5 mph 97 % 0 in
03:22 46.9 °F 46.2 °F 30 in West 4 mph 6.3 mph 97 % 0 in
03:27 46.9 °F 46.2 °F 30 in West 4.3 mph 6.9 mph 97 % 0 in
03:32 46.9 °F 46.2 °F 30 in WNW 4.9 mph 6.9 mph 97 % 0 in
03:37 47.1 °F 46.4 °F 30 in West 5.4 mph 7.4 mph 97 % 0 in
03:42 47.1 °F 46.4 °F 30 in SSW 2.2 mph 7.4 mph 97 % 0 in
03:47 47.1 °F 46.4 °F 30 in SSW 4.9 mph 7.2 mph 97 % 0 in
03:52 47.1 °F 46.4 °F 30 in West 5.8 mph 7.2 mph 97 % 0 in
03:57 47.1 °F 46.4 °F 30 in WSW 4.9 mph 6.5 mph 97 % 0 in
04:02 47.3 °F 46.6 °F 30 in West 3.4 mph 6.5 mph 97 % 0 in
04:07 47.3 °F 46.6 °F 30 in West 2.5 mph 6.5 mph 97 % 0 in
04:12 47.3 °F 46.6 °F 30 in WNW 3.6 mph 7.4 mph 97 % 0 in
04:17 47.3 °F 46.6 °F 30 in West 3.8 mph 7.4 mph 97 % 0 in
04:22 47.3 °F 46.8 °F 30 in Calm   7.2 mph 98 % 0 in
04:27 47.3 °F 46.8 °F 30 in West 4.9 mph 6 mph 98 % 0 in
04:32 47.3 °F 46.8 °F 30 in West 4 mph 6 mph 98 % 0 in
04:37 47.5 °F 46.9 °F 30 in West 4 mph 4.9 mph 98 % 0 in
04:42 47.5 °F 46.9 °F 30 in WSW 4 mph 5.4 mph 98 % 0 in
04:47 47.5 °F 46.9 °F 30 in West 3.1 mph 6.3 mph 98 % 0 in
04:52 47.5 °F 46.9 °F 30 in SW 1.6 mph 6.3 mph 98 % 0 in
04:58 47.5 °F 46.9 °F 30 in Calm   5.6 mph 98 % 0 in
05:03 47.5 °F 46.9 °F 30 in Calm   6 mph 98 % 0 in
05:08 47.5 °F 46.9 °F 30 in WSW 2.2 mph 7.2 mph 98 % 0 in
05:13 47.5 °F 46.9 °F 30 in WSW 2.9 mph 7.2 mph 98 % 0 in
05:18 47.7 °F 46.9 °F 30 in West 3.1 mph 5.8 mph 97 % 0 in
05:23 47.7 °F 46.9 °F 30 in West 3.4 mph 5.6 mph 97 % 0 in
05:28 47.7 °F 46.9 °F 30 in West 3.8 mph 5.6 mph 97 % 0 in
05:33 47.7 °F 46.9 °F 30 in West 2.5 mph 4.9 mph 97 % 0 in
05:38 47.7 °F 46.9 °F 30 in West 2 mph 4.9 mph 97 % 0 in
05:43 47.7 °F 46.9 °F 30 in West 4 mph 4.7 mph 97 % 0 in
05:48 47.7 °F 46.9 °F 30 in Calm   4.9 mph 97 % 0 in
05:53 47.7 °F 46.9 °F 30 in Calm   4.9 mph 97 % 0 in
05:58 47.7 °F 46.9 °F 30 in West 4 mph 4 mph 97 % 0 in
06:03 47.5 °F 46.8 °F 30 in West 3.6 mph 5.6 mph 97 % 0 in
06:08 47.5 °F 46.8 °F 30 in WSW 3.1 mph 5.6 mph 97 % 0 in
06:13 47.3 °F 46.6 °F 30 in West 3.4 mph 5.8 mph 97 % 0 in
06:18 47.3 °F 46.6 °F 30 in West 3.1 mph 5.8 mph 97 % 0 in
06:23 47.3 °F 46.6 °F 30 in West 4.9 mph 5.8 mph 97 % 0 in
06:28 47.1 °F 46.4 °F 30 in WNW 2.5 mph 5.4 mph 97 % 0 in
06:33 47.1 °F 46.4 °F 30 in West 2.9 mph 4.3 mph 97 % 0 in
06:38 47.1 °F 46.4 °F 30 in West 2.2 mph 4 mph 97 % 0 in
06:43 47.3 °F 46.6 °F 30 in West 3.1 mph 3.8 mph 97 % 0 in
06:48 47.3 °F 46.6 °F 30 in NW 4.3 mph 7.4 mph 97 % 0 in
06:53 47.5 °F 46.8 °F 30 in Calm   7.4 mph 97 % 0 in
06:58 47.5 °F 46.8 °F 30 in West 3.1 mph 7.4 mph 97 % 0 in
07:03 47.7 °F 46.9 °F 30 in NNW 3.6 mph 6.3 mph 97 % 0 in
07:08 47.7 °F 46.9 °F 30 in Calm   6.3 mph 97 % 0 in
07:13 47.7 °F 46.6 °F 30 in Calm   5.6 mph 96 % 0 in
07:18 47.8 °F 46.8 °F 30 in Calm   5.6 mph 96 % 0 in
07:23 47.8 °F 46.8 °F 30 in Calm   5.6 mph 96 % 0 in
07:28 47.8 °F 46.8 °F 30 in West 2 mph 5.6 mph 96 % 0 in
07:33 47.8 °F 46.8 °F 30 in West 1.1 mph 4.3 mph 96 % 0 in
07:38 47.8 °F 46.8 °F 30.1 in WSW 3.4 mph 5.6 mph 96 % 0 in
07:43 47.8 °F 46.8 °F 30.1 in West 2.7 mph 5.8 mph 96 % 0 in
07:48 47.8 °F 46.6 °F 30.1 in West 3.4 mph 5.8 mph 95 % 0 in
07:53 47.8 °F 46.6 °F 30.1 in West 0.9 mph 4.7 mph 95 % 0 in
07:58 47.8 °F 46.6 °F 30.1 in West 3.1 mph 4 mph 95 % 0 in
08:03 47.8 °F 46.6 °F 30.1 in Calm   4.3 mph 95 % 0 in
08:08 48 °F 46.8 °F 30.1 in WNW 2.7 mph 5.4 mph 95 % 0 in
08:13 48 °F 46.8 °F 30.1 in Calm   5.4 mph 95 % 0 in
08:18 48.2 °F 46.9 °F 30.1 in Calm   4.9 mph 95 % 0 in
08:23 48.4 °F 46.9 °F 30.1 in Calm   4.9 mph 95 % 0 in
08:28 48.6 °F 47.1 °F 30.1 in NNW 2 mph 3.8 mph 95 % 0 in
08:33 49.1 °F 47.7 °F 30.1 in WNW 2 mph 4.3 mph 95 % 0 in
08:38 49.3 °F 47.8 °F 30.1 in SSW 2 mph 4.9 mph 95 % 0 in
08:43 49.5 °F 48 °F 30.1 in NW 4.5 mph 6 mph 95 % 0 in
08:49 49.6 °F 48 °F 30.1 in NW 3.6 mph 6 mph 94 % 0 in
08:59 49.8 °F 47.8 °F 30.1 in WNW 2.9 mph 7.8 mph 93 % 0 in
09:04 49.8 °F 47.7 °F 30.1 in NW 4.3 mph 8.1 mph 92 % 0 in
09:09 50.4 °F 47.5 °F 30.1 in WNW 3.8 mph 8.1 mph 90 % 0 in
09:14 50.9 °F 46.6 °F 30.1 in NW 2.5 mph 7.8 mph 85 % 0 in
09:19 51.3 °F 46.6 °F 30.1 in NNW 2.9 mph 7.6 mph 84 % 0 in
09:24 51.4 °F 46.4 °F 30.1 in North 6.9 mph 7.6 mph 83 % 0 in
09:29 51.6 °F 46.2 °F 30.1 in NW 3.6 mph 7.2 mph 82 % 0 in
09:34 52.2 °F 46.6 °F 30.1 in West 3.8 mph 7.2 mph 81 % 0 in
09:39 52.3 °F 46 °F 30.1 in North 4.9 mph 6.5 mph 79 % 0 in
09:44 51.4 °F 44.4 °F 30.1 in North 4.7 mph 7.8 mph 77 % 0 in
09:49 51.3 °F 44.6 °F 30.1 in NW 4 mph 8.1 mph 78 % 0 in
09:54 50.7 °F 43.2 °F 30.1 in NNW 4 mph 8.1 mph 75 % 0 in
09:59 50.7 °F 43.2 °F 30.1 in WNW 7.4 mph 8.1 mph 75 % 0 in
10:04 50.7 °F 42.4 °F 30.1 in NW 4.3 mph 10.7 mph 73 % 0 in
10:09 52 °F 43.9 °F 30.1 in WNW 2.5 mph 10.7 mph 74 % 0 in
10:14 52.2 °F 43.3 °F 30.1 in NNW 1.3 mph 8.1 mph 72 % 0 in
10:19 53.2 °F 45 °F 30.1 in West 1.6 mph 7.6 mph 73 % 0 in
10:24 52.9 °F 43.7 °F 30.1 in West 2.9 mph 8.7 mph 71 % 0 in
10:29 52 °F 42.1 °F 30.1 in NW 2 mph 11.9 mph 69 % 0 in
10:34 52.5 °F 43.3 °F 30.1 in WNW 1.3 mph 11.9 mph 71 % 0 in
10:39 52.3 °F 42.4 °F 30.1 in NE 5.6 mph 7.8 mph 69 % 0 in
10:44 52.5 °F 43 °F 30.1 in WNW 7.4 mph 8.5 mph 70 % 0 in
10:49 53.2 °F 43.3 °F 30.1 in North 3.6 mph 8.5 mph 69 % 0 in
10:54 52 °F 41.4 °F 30.1 in WNW 7.4 mph 12.8 mph 67 % 0 in
10:59 53.2 °F 43.3 °F 30.1 in WNW 3.8 mph 12.8 mph 69 % 0 in
11:04 54 °F 43.7 °F 30.1 in West 4.9 mph 11 mph 68 % 0 in
11:09 54.7 °F 44.2 °F 30.1 in WNW 3.4 mph 11 mph 68 % 0 in
11:14 53.4 °F 41.2 °F 30.1 in West 4.9 mph 10.5 mph 63 % 0 in
11:19 52.5 °F 39.9 °F 30.1 in WNW 2.5 mph 10.5 mph 62 % 0 in
11:24 54 °F 42.1 °F 30.1 in WSW 3.8 mph 10.1 mph 64 % 0 in
11:29 54 °F 41.5 °F 30.1 in West 3.1 mph 12.5 mph 63 % 0 in
11:34 53.4 °F 39.6 °F 30.1 in West 4 mph 12.5 mph 59 % 0 in
11:39 53.2 °F 40.3 °F 30.1 in WNW 6.7 mph 7.6 mph 61 % 0 in
11:44 54 °F 39.9 °F 30.1 in WNW 8.7 mph 10.1 mph 59 % 0 in
11:49 53.8 °F 39.4 °F 30.1 in WNW 4.9 mph 10.1 mph 58 % 0 in
11:54 54.9 °F 40.6 °F 30.1 in WNW 6 mph 11.2 mph 59 % 0 in
11:59 54.9 °F 38.7 °F 30.1 in West 6.3 mph 14.8 mph 54 % 0 in
12:04 55.6 °F 38.8 °F 30.1 in SW 5.8 mph 14.8 mph 53 % 0 in
12:09 55.2 °F 38.5 °F 30.1 in WNW 5.8 mph 12.3 mph 53 % 0 in
12:14 54.9 °F 37.9 °F 30.1 in NW 11 mph 12.3 mph 53 % 0 in
12:19 54.1 °F 36.5 °F 30.1 in West 7.8 mph 11 mph 51 % 0 in
12:24 54.1 °F 36.5 °F 30.1 in South 6.7 mph 11 mph 51 % 0 in
12:29 54.9 °F 37 °F 30.1 in West 10.7 mph 10.7 mph 51 % 0 in
12:34 54.9 °F 37.6 °F 30.1 in West 10.3 mph 10.7 mph 52 % 0 in
12:39 54.7 °F 37.2 °F 30.1 in WNW 8.7 mph 13.4 mph 52 % 0 in
12:44 54 °F 35.8 °F 30.1 in West 3.6 mph 14.3 mph 50 % 0 in
12:49 54 °F 35.6 °F 30.1 in SW 6.7 mph 14.3 mph 50 % 0 in
12:54 54.7 °F 36.9 °F 30.1 in North 5.8 mph 12.8 mph 51 % 0 in
13:00 54.9 °F 36.5 °F 30.1 in West 10.3 mph 13.2 mph 50 % 0 in
13:05 54.9 °F 36.5 °F 30.1 in East 8.1 mph 14.3 mph 50 % 0 in
13:10 55 °F 36.9 °F 30.1 in WSW 10.5 mph 14.3 mph 50 % 0 in
13:15 55.6 °F 37.2 °F 30.1 in South 6.3 mph 11.9 mph 50 % 0 in
13:20 55.8 °F 36.3 °F 30.1 in SE 10.3 mph 16.8 mph 48 % 0 in
13:25 56.1 °F 36.1 °F 30.1 in NW 5.8 mph 16.8 mph 47 % 0 in
13:30 55.8 °F 36 °F 30.1 in North 7.6 mph 12.3 mph 47 % 0 in
13:35 55.8 °F 36 °F 30.1 in WNW 4.3 mph 13 mph 47 % 0 in
13:40 55.6 °F 35.1 °F 30.1 in SSW 6.5 mph 13 mph 46 % 0 in
13:45 54.9 °F 33.8 °F 30.1 in WNW 10.5 mph 12.1 mph 45 % 0 in
13:50 54.7 °F 33.6 °F 30.1 in West 6 mph 13.2 mph 45 % 0 in
13:55 55.2 °F 34.3 °F 30.1 in WNW 2.7 mph 13.2 mph 45 % 0 in
14:00 55.8 °F 34.9 °F 30.1 in WNW 8.1 mph 11 mph 45 % 0 in
14:05 55.6 °F 34.5 °F 30.1 in WSW 6.5 mph 12.1 mph 45 % 0 in
14:10 55.6 °F 34.5 °F 30.1 in West 10.3 mph 15.2 mph 45 % 0 in
14:15 55.8 °F 34.9 °F 30.1 in WNW 10.7 mph 15.9 mph 45 % 0 in
14:20 56.1 °F 34.5 °F 30.1 in NW 7.2 mph 15.9 mph 44 % 0 in
14:25 55.8 °F 34.9 °F 30.1 in West 9.6 mph 14.5 mph 45 % 0 in
14:30 55.9 °F 34.3 °F 30.1 in West 14.5 mph 15.2 mph 44 % 0 in
14:35 55.9 °F 33.3 °F 30.1 in West 6.3 mph 17 mph 42 % 0 in
14:40 55.8 °F 33.1 °F 30 in WNW 3.8 mph 15.2 mph 42 % 0 in
14:45 55.9 °F 33.8 °F 30 in West 8.5 mph 15.2 mph 43 % 0 in
14:50 56.1 °F 34.5 °F 30 in SSW 14.5 mph 14.5 mph 44 % 0 in
14:55 55.8 °F 34.9 °F 30 in West 6 mph 15.4 mph 45 % 0 in
15:00 56.1 °F 35.1 °F 30 in West 10.1 mph 17 mph 45 % 0 in
15:05 55.6 °F 34 °F 30 in West 10.5 mph 17.9 mph 44 % 0 in
15:10 55.2 °F 33.6 °F 30 in West 12.1 mph 17.9 mph 44 % 0 in
15:15 54.9 °F 34 °F 30 in West 11.2 mph 15.7 mph 45 % 0 in
15:20 54.7 °F 33.6 °F 30 in West 12.5 mph 19.9 mph 45 % 0 in
15:25 54.7 °F 33.6 °F 30 in West 13 mph 19.9 mph 45 % 0 in
15:30 54.7 °F 33.6 °F 30 in West 13.2 mph 17.4 mph 45 % 0 in
15:35 54.7 °F 33.6 °F 30 in West 12.8 mph 17.4 mph 45 % 0 in
15:40 54.3 °F 33.4 °F 30 in West 8.7 mph 16.8 mph 45 % 0 in
15:45 54 °F 33.3 °F 30 in West 10.5 mph 19.9 mph 45 % 0 in
15:50 53.8 °F 33.4 °F 30 in West 20.1 mph 20.1 mph 46 % 0 in
15:55 53.8 °F 33.4 °F 30 in West 12.5 mph 20.1 mph 46 % 0 in
16:00 53.2 °F 33.1 °F 30 in WSW 13 mph 20.1 mph 46 % 0 in
16:05 53.2 °F 32.9 °F 30 in WSW 17.7 mph 19.5 mph 46 % 0 in
16:10 53.1 °F 32.7 °F 30 in WSW 17.4 mph 22.6 mph 46 % 0 in
16:15 52.5 °F 31.3 °F 30 in West 12.3 mph 22.6 mph 44 % 0 in
16:20 52.5 °F 31.6 °F 30 in West 12.5 mph 19.9 mph 45 % 0 in
16:25 52.3 °F 30.4 °F 30 in WSW 10.1 mph 19.7 mph 43 % 0 in
16:30 52.2 °F 30.4 °F 30 in West 14.1 mph 19.5 mph 43 % 0 in
16:35 52.2 °F 30.4 °F 30 in WSW 17.4 mph 23.3 mph 43 % 0 in
16:41 52 °F 30 °F 30 in West 13.6 mph 23.3 mph 43 % 0 in
16:45 51.8 °F 30 °F 30 in West 16.3 mph 21.9 mph 43 % 0 in
16:46 51.8 °F 30 °F 30 in WSW 11 mph 21.9 mph 43 % 0 in
16:51 51.4 °F 29.7 °F 30 in WSW 19.9 mph 23.9 mph 43 % 0 in
16:56 51.3 °F 30.6 °F 30 in WSW 19.2 mph 23.9 mph 45 % 0 in
17:01 51.1 °F 30.4 °F 30 in WSW 15.4 mph 22.6 mph 45 % 0 in
17:06 50.7 °F 29.7 °F 30 in WSW 23.3 mph 23.3 mph 44 % 0 in
17:07 50.5 °F 29.5 °F 30 in West 23.5 mph 26.4 mph 44 % 0 in
17:12 50.4 °F 29.1 °F 30 in WSW 25.7 mph 26.4 mph 44 % 0 in
17:17 50.2 °F 29.1 °F 30 in West 16.8 mph 25.7 mph 44 % 0 in
17:22 50 °F 29.5 °F 30 in West 15.2 mph 25.7 mph 45 % 0 in
17:27 50 °F 30 °F 30 in WSW 18.8 mph 23 mph 46 % 0 in
17:32 49.8 °F 29.8 °F 30 in West 19.9 mph 23.9 mph 46 % 0 in
17:37 49.6 °F 30.2 °F 30 in West 19.5 mph 23.9 mph 47 % 0 in
17:42 49.5 °F 30.6 °F 30 in West 19.9 mph 23.7 mph 48 % 0 in
17:47 49.3 °F 30.4 °F 30 in WSW 12.8 mph 22.4 mph 48 % 0 in
17:52 49.1 °F 30.7 °F 30 in WSW 17 mph 22.1 mph 49 % 0 in
17:53 49.1 °F 30.7 °F 30 in West 13.2 mph 22.1 mph 49 % 0 in
17:58 48.9 °F 31.6 °F 30 in West 17.7 mph 20.1 mph 51 % 0 in
18:03 48.7 °F 32.4 °F 30 in WSW 14.8 mph 23.9 mph 53 % 0 in
18:08 48.6 °F 33.1 °F 30 in WSW 15.2 mph 23.9 mph 55 % 0 in
18:13 48.4 °F 34 °F 30 in WSW 15.4 mph 22.6 mph 57 % 0 in
18:18 48.2 °F 34.5 °F 30 in West 17.4 mph 19.5 mph 59 % 0 in
18:23 48.2 °F 35.4 °F 30 in West 19.7 mph 23.3 mph 61 % 0 in
18:24 48.2 °F 35.4 °F 30 in West 16.6 mph 23.3 mph 61 % 0 in
18:29 48 °F 35.6 °F 30 in West 13 mph 23.3 mph 62 % 0 in
18:39 47.7 °F 36.5 °F 30 in WSW 10.7 mph 22.1 mph 65 % 0 in
18:44 47.7 °F 36.9 °F 30 in West 13.2 mph 22.8 mph 66 % 0 in
18:49 47.5 °F 36.7 °F 30 in WSW 15.7 mph 22.8 mph 66 % 0 in
18:54 47.3 °F 36.9 °F 30 in WSW 15.4 mph 21 mph 67 % 0 in
18:59 47.3 °F 36.9 °F 30 in West 17.7 mph 23.7 mph 67 % 0 in
19:04 47.1 °F 37 °F 30 in WSW 14.8 mph 23.7 mph 68 % 0 in
19:09 47.1 °F 37.6 °F 30 in West 15.4 mph 17.7 mph 69 % 0 in
19:14 46.9 °F 37.2 °F 30 in WSW 12.8 mph 15.4 mph 69 % 0 in
19:19 46.9 °F 38.1 °F 30 in WSW 17.2 mph 17.2 mph 71 % 0 in
19:24 46.9 °F 38.5 °F 30 in West 16.8 mph 18.1 mph 72 % 0 in
19:29 46.9 °F 38.5 °F 30 in WSW 15.2 mph 19.9 mph 72 % 0 in
19:34 46.9 °F 38.5 °F 30 in WSW 11.9 mph 19.9 mph 72 % 0 in
19:39 46.9 °F 38.8 °F 30 in WSW 11.4 mph 17.4 mph 73 % 0 in
19:44 46.9 °F 39 °F 30 in WSW 14.1 mph 22.1 mph 74 % 0 in
19:49 46.9 °F 39 °F 30 in WSW 12.5 mph 22.1 mph 74 % 0 in
19:54 46.8 °F 39 °F 30 in WSW 12.5 mph 21.3 mph 74 % 0 in
19:59 46.8 °F 39.4 °F 30 in West 16.1 mph 19.7 mph 75 % 0 in
20:04 46.8 °F 39.4 °F 30 in West 15.2 mph 23 mph 75 % 0 in
20:09 46.8 °F 39.4 °F 30 in WSW 12.3 mph 23 mph 75 % 0 in
20:14 46.8 °F 39.4 °F 30 in WSW 14.8 mph 22.6 mph 75 % 0 in
20:19 46.8 °F 39.4 °F 30 in West 12.8 mph 22.6 mph 75 % 0 in
20:24 46.8 °F 39.6 °F 29.9 in WSW 15.4 mph 19.9 mph 76 % 0 in
20:29 46.8 °F 39.6 °F 29.9 in WSW 14.8 mph 19.9 mph 76 % 0 in
20:34 46.9 °F 40.3 °F 29.9 in WSW 12.8 mph 19.2 mph 77 % 0 in
20:39 46.9 °F 40.3 °F 30 in WSW 13.6 mph 19.5 mph 77 % 0 in
20:44 46.9 °F 40.5 °F 30 in WSW 17.2 mph 19.5 mph 78 % 0 in
20:49 46.9 °F 40.8 °F 30 in WSW 17.7 mph 19.2 mph 79 % 0 in
20:54 46.9 °F 41.2 °F 29.9 in WSW 19.2 mph 19.5 mph 80 % 0 in
20:59 46.9 °F 41.2 °F 29.9 in WSW 11.2 mph 20.6 mph 80 % 0 in
21:04 46.9 °F 41.5 °F 29.9 in SW 19.5 mph 22.4 mph 81 % 0 in
21:09 47.1 °F 41.5 °F 29.9 in WSW 17.7 mph 24.6 mph 81 % 0 in
21:14 47.1 °F 41.5 °F 29.9 in WSW 15.7 mph 25.1 mph 81 % 0 in
21:19 47.3 °F 41.7 °F 29.9 in WSW 23.7 mph 25.1 mph 81 % 0 in
21:24 47.3 °F 41.7 °F 29.9 in SW 16.6 mph 23.9 mph 81 % 0 in
21:29 47.3 °F 41.7 °F 29.9 in WSW 16.1 mph 23.9 mph 81 % 0 in
21:30 47.3 °F 41.7 °F 29.9 in WSW 19.2 mph 23.9 mph 81 % 0 in
21:35 47.3 °F 41.7 °F 29.9 in WSW 16.6 mph 25.5 mph 81 % 0 in
21:40 47.3 °F 41.7 °F 29.9 in WSW 19.9 mph 25.5 mph 81 % 0 in
21:45 47.5 °F 42.3 °F 29.9 in WSW 13.2 mph 25.1 mph 82 % 0 in
21:50 47.5 °F 42.3 °F 29.9 in WSW 17.7 mph 25.1 mph 82 % 0 in
21:55 47.5 °F 42.3 °F 29.9 in WSW 13.2 mph 24.6 mph 82 % 0 in
22:00 47.5 °F 42.3 °F 29.9 in SW 15.4 mph 24.6 mph 82 % 0 in
22:05 47.5 °F 42.3 °F 29.9 in WSW 14.5 mph 23.7 mph 82 % 0 in
22:10 47.7 °F 42.4 °F 29.9 in SSW 13.9 mph 23.7 mph 82 % 0 in
22:15 47.7 °F 42.4 °F 29.9 in WSW 21.3 mph 24.4 mph 82 % 0 in
22:20 47.7 °F 42.4 °F 29.9 in WSW 15.4 mph 24.4 mph 82 % 0 in
22:25 47.7 °F 43.2 °F 29.9 in WSW 15.4 mph 25.3 mph 84 % 0 in
22:30 47.5 °F 43.2 °F 29.9 in WSW 14.8 mph 25.3 mph 85 % 0 in
22:35 47.3 °F 43.3 °F 29.9 in WSW 13 mph 23 mph 86 % 0 in
22:40 47.3 °F 43.7 °F 29.9 in SW 17.7 mph 23 mph 87 % 0 in
22:45 47.1 °F 43.9 °F 29.9 in WSW 25.3 mph 25.3 mph 88 % 0 in
22:50 46.9 °F 43.9 °F 29.9 in WSW 19.7 mph 25.3 mph 89 % 0 in
22:55 46.9 °F 44.2 °F 29.9 in WSW 18.1 mph 25.3 mph 90 % 0.01 in
23:00 46.9 °F 44.4 °F 29.9 in WSW 20.6 mph 23 mph 91 % 0.01 in
23:05 46.9 °F 44.4 °F 29.9 in WSW 17.9 mph 26.2 mph 91 % 0.01 in
23:11 46.9 °F 44.8 °F 29.9 in WSW 16.6 mph 26.2 mph 92 % 0.01 in
23:16 46.9 °F 44.8 °F 29.9 in WSW 13 mph 26.4 mph 92 % 0.01 in
23:21 46.9 °F 45.1 °F 29.9 in West 25.3 mph 26.4 mph 93 % 0.02 in
23:26 46.9 °F 45.1 °F 29.9 in WSW 28.4 mph 28.4 mph 93 % 0.02 in
23:31 46.9 °F 45.3 °F 29.9 in WSW 18.8 mph 28.4 mph 94 % 0.02 in
23:36 46.9 °F 45.3 °F 29.9 in WSW 23.3 mph 28.4 mph 94 % 0.02 in
23:41 46.9 °F 45.3 °F 29.9 in WSW 19.5 mph 23.9 mph 94 % 0.02 in
23:46 46.9 °F 45.7 °F 29.9 in WSW 23.5 mph 27.1 mph 95 % 0.02 in
23:51 46.9 °F 45.7 °F 29.9 in WSW 17.7 mph 27.1 mph 95 % 0.01 in
23:56 46.9 °F 45.7 °F 29.9 in WSW 20.6 mph 23.9 mph 95 % 0.01 in
Le Gheer Warneton
Courtoisie de Weather Underground - 2.25 mb

Mise a jour : 18/12/2017 17:42:12
Généré par Cumulus 1.9.4 (1099)